sensor_id;sensor_type;location;lat;lon;timestamp;P1;durP1;ratioP1;P2;durP2;ratioP2
37305;SDS011;23193;42.656;21.170;2022-08-19T00:02:05;29.17;;;8.23;;
37305;SDS011;23193;42.656;21.170;2022-08-19T00:04:33;16.48;;;8.75;;
37305;SDS011;23193;42.656;21.170;2022-08-19T00:07:02;17.80;;;8.10;;
37305;SDS011;23193;42.656;21.170;2022-08-19T00:09:28;20.42;;;8.82;;
37305;SDS011;23193;42.656;21.170;2022-08-19T00:11:55;20.10;;;8.48;;
37305;SDS011;23193;42.656;21.170;2022-08-19T00:14:22;23.75;;;8.60;;
37305;SDS011;23193;42.656;21.170;2022-08-19T00:16:49;18.98;;;8.05;;
37305;SDS011;23193;42.656;21.170;2022-08-19T00:19:18;21.42;;;8.38;;
37305;SDS011;23193;42.656;21.170;2022-08-19T00:21:45;17.55;;;8.18;;
37305;SDS011;23193;42.656;21.170;2022-08-19T00:24:12;14.52;;;7.75;;
37305;SDS011;23193;42.656;21.170;2022-08-19T00:26:39;16.90;;;7.78;;
37305;SDS011;23193;42.656;21.170;2022-08-19T00:29:06;15.75;;;8.38;;
37305;SDS011;23193;42.656;21.170;2022-08-19T00:31:33;12.35;;;8.65;;
37305;SDS011;23193;42.656;21.170;2022-08-19T00:33:59;16.90;;;8.10;;
37305;SDS011;23193;42.656;21.170;2022-08-19T00:36:25;18.65;;;8.98;;
37305;SDS011;23193;42.656;21.170;2022-08-19T00:38:51;17.25;;;8.57;;
37305;SDS011;23193;42.656;21.170;2022-08-19T00:41:19;20.63;;;8.98;;
37305;SDS011;23193;42.656;21.170;2022-08-19T00:44:31;15.07;;;8.43;;
37305;SDS011;23193;42.656;21.170;2022-08-19T00:46:32;15.65;;;8.82;;
37305;SDS011;23193;42.656;21.170;2022-08-19T00:49:02;16.33;;;8.48;;
37305;SDS011;23193;42.656;21.170;2022-08-19T00:51:30;16.45;;;8.52;;
37305;SDS011;23193;42.656;21.170;2022-08-19T00:53:57;23.40;;;9.98;;
37305;SDS011;23193;42.656;21.170;2022-08-19T00:56:25;23.50;;;10.52;;
37305;SDS011;23193;42.656;21.170;2022-08-19T00:58:52;22.67;;;10.32;;
37305;SDS011;23193;42.656;21.170;2022-08-19T01:01:19;16.83;;;10.32;;
37305;SDS011;23193;42.656;21.170;2022-08-19T01:03:46;25.40;;;10.40;;
37305;SDS011;23193;42.656;21.170;2022-08-19T01:06:12;15.82;;;8.32;;
37305;SDS011;23193;42.656;21.170;2022-08-19T01:08:38;11.50;;;8.38;;
37305;SDS011;23193;42.656;21.170;2022-08-19T01:11:04;17.80;;;8.18;;
37305;SDS011;23193;42.656;21.170;2022-08-19T01:13:31;16.20;;;8.10;;
37305;SDS011;23193;42.656;21.170;2022-08-19T01:16:00;12.20;;;8.18;;
37305;SDS011;23193;42.656;21.170;2022-08-19T01:18:26;11.68;;;7.90;;
37305;SDS011;23193;42.656;21.170;2022-08-19T01:20:54;14.40;;;8.43;;
37305;SDS011;23193;42.656;21.170;2022-08-19T01:23:20;18.15;;;8.95;;
37305;SDS011;23193;42.656;21.170;2022-08-19T01:25:47;17.75;;;8.38;;
37305;SDS011;23193;42.656;21.170;2022-08-19T01:28:19;10.95;;;8.18;;
37305;SDS011;23193;42.656;21.170;2022-08-19T01:30:46;15.02;;;9.27;;
37305;SDS011;23193;42.656;21.170;2022-08-19T01:33:13;13.95;;;8.75;;
37305;SDS011;23193;42.656;21.170;2022-08-19T01:35:39;17.95;;;8.70;;
37305;SDS011;23193;42.656;21.170;2022-08-19T01:38:06;13.85;;;9.00;;
37305;SDS011;23193;42.656;21.170;2022-08-19T01:40:34;13.75;;;8.45;;
37305;SDS011;23193;42.656;21.170;2022-08-19T01:43:01;17.30;;;10.10;;
37305;SDS011;23193;42.656;21.170;2022-08-19T01:45:28;15.10;;;10.23;;
37305;SDS011;23193;42.656;21.170;2022-08-19T01:47:55;14.10;;;9.77;;
37305;SDS011;23193;42.656;21.170;2022-08-19T01:50:21;17.45;;;9.90;;
37305;SDS011;23193;42.656;21.170;2022-08-19T01:52:47;20.33;;;9.80;;
37305;SDS011;23193;42.656;21.170;2022-08-19T01:55:15;14.65;;;10.35;;
37305;SDS011;23193;42.656;21.170;2022-08-19T01:57:43;13.13;;;8.82;;
37305;SDS011;23193;42.656;21.170;2022-08-19T02:00:11;13.02;;;8.75;;
37305;SDS011;23193;42.656;21.170;2022-08-19T02:02:37;21.00;;;9.75;;
37305;SDS011;23193;42.656;21.170;2022-08-19T02:05:04;17.23;;;8.85;;
37305;SDS011;23193;42.656;21.170;2022-08-19T02:07:32;13.57;;;7.90;;
37305;SDS011;23193;42.656;21.170;2022-08-19T02:09:58;15.30;;;8.18;;
37305;SDS011;23193;42.656;21.170;2022-08-19T02:12:24;19.25;;;8.63;;
37305;SDS011;23193;42.656;21.170;2022-08-19T02:14:50;12.02;;;8.20;;
37305;SDS011;23193;42.656;21.170;2022-08-19T02:17:16;17.60;;;8.25;;
37305;SDS011;23193;42.656;21.170;2022-08-19T02:19:43;11.63;;;6.82;;
37305;SDS011;23193;42.656;21.170;2022-08-19T02:22:09;9.40;;;6.55;;
37305;SDS011;23193;42.656;21.170;2022-08-19T02:24:35;11.73;;;6.75;;
37305;SDS011;23193;42.656;21.170;2022-08-19T02:27:01;11.70;;;6.95;;
37305;SDS011;23193;42.656;21.170;2022-08-19T02:29:27;12.95;;;6.57;;
37305;SDS011;23193;42.656;21.170;2022-08-19T02:31:53;12.65;;;6.35;;
37305;SDS011;23193;42.656;21.170;2022-08-19T02:34:19;10.00;;;5.60;;
37305;SDS011;23193;42.656;21.170;2022-08-19T02:36:45;14.38;;;6.65;;
37305;SDS011;23193;42.656;21.170;2022-08-19T02:39:11;10.02;;;6.78;;
37305;SDS011;23193;42.656;21.170;2022-08-19T02:41:37;15.55;;;5.65;;
37305;SDS011;23193;42.656;21.170;2022-08-19T02:44:03;11.55;;;7.10;;
37305;SDS011;23193;42.656;21.170;2022-08-19T02:46:30;9.75;;;6.72;;
37305;SDS011;23193;42.656;21.170;2022-08-19T02:48:58;9.93;;;6.68;;
37305;SDS011;23193;42.656;21.170;2022-08-19T02:51:26;13.75;;;6.80;;
37305;SDS011;23193;42.656;21.170;2022-08-19T02:53:53;13.70;;;6.78;;
37305;SDS011;23193;42.656;21.170;2022-08-19T02:56:19;18.92;;;7.05;;
37305;SDS011;23193;42.656;21.170;2022-08-19T02:58:46;13.60;;;7.30;;
37305;SDS011;23193;42.656;21.170;2022-08-19T03:01:23;11.30;;;7.53;;
37305;SDS011;23193;42.656;21.170;2022-08-19T03:03:50;12.68;;;7.05;;
37305;SDS011;23193;42.656;21.170;2022-08-19T03:06:16;10.65;;;6.50;;
37305;SDS011;23193;42.656;21.170;2022-08-19T03:08:44;9.88;;;6.13;;
37305;SDS011;23193;42.656;21.170;2022-08-19T03:11:20;10.10;;;6.28;;
37305;SDS011;23193;42.656;21.170;2022-08-19T03:13:47;16.80;;;6.88;;
37305;SDS011;23193;42.656;21.170;2022-08-19T03:16:14;14.23;;;6.63;;
37305;SDS011;23193;42.656;21.170;2022-08-19T03:18:41;14.68;;;6.15;;
37305;SDS011;23193;42.656;21.170;2022-08-19T03:21:07;13.48;;;6.45;;
37305;SDS011;23193;42.656;21.170;2022-08-19T03:23:33;20.88;;;7.78;;
37305;SDS011;23193;42.656;21.170;2022-08-19T03:26:02;15.88;;;7.20;;
37305;SDS011;23193;42.656;21.170;2022-08-19T03:28:29;9.07;;;6.32;;
37305;SDS011;23193;42.656;21.170;2022-08-19T03:31:14;10.75;;;6.30;;
37305;SDS011;23193;42.656;21.170;2022-08-19T03:33:40;13.57;;;7.22;;
37305;SDS011;23193;42.656;21.170;2022-08-19T03:36:08;14.05;;;6.53;;
37305;SDS011;23193;42.656;21.170;2022-08-19T03:38:35;14.05;;;6.22;;
37305;SDS011;23193;42.656;21.170;2022-08-19T03:41:02;14.38;;;6.55;;
37305;SDS011;23193;42.656;21.170;2022-08-19T03:43:28;9.50;;;6.25;;
37305;SDS011;23193;42.656;21.170;2022-08-19T03:46:11;14.25;;;8.68;;
37305;SDS011;23193;42.656;21.170;2022-08-19T03:48:38;19.08;;;7.28;;
37305;SDS011;23193;42.656;21.170;2022-08-19T03:51:05;16.17;;;7.88;;
37305;SDS011;23193;42.656;21.170;2022-08-19T03:53:31;23.23;;;10.98;;
37305;SDS011;23193;42.656;21.170;2022-08-19T03:55:58;22.05;;;12.90;;
37305;SDS011;23193;42.656;21.170;2022-08-19T03:58:29;31.00;;;14.27;;
37305;SDS011;23193;42.656;21.170;2022-08-19T04:00:56;34.50;;;17.17;;
37305;SDS011;23193;42.656;21.170;2022-08-19T04:03:22;31.55;;;18.80;;
37305;SDS011;23193;42.656;21.170;2022-08-19T04:05:49;35.70;;;20.15;;
37305;SDS011;23193;42.656;21.170;2022-08-19T04:08:15;30.42;;;18.67;;
37305;SDS011;23193;42.656;21.170;2022-08-19T04:10:44;39.03;;;20.15;;
37305;SDS011;23193;42.656;21.170;2022-08-19T04:13:10;30.63;;;19.60;;
37305;SDS011;23193;42.656;21.170;2022-08-19T04:15:42;35.03;;;20.25;;
37305;SDS011;23193;42.656;21.170;2022-08-19T04:18:09;26.75;;;15.90;;
37305;SDS011;23193;42.656;21.170;2022-08-19T04:20:39;26.45;;;15.38;;
37305;SDS011;23193;42.656;21.170;2022-08-19T04:23:06;23.92;;;14.40;;
37305;SDS011;23193;42.656;21.170;2022-08-19T04:25:39;25.10;;;14.82;;
37305;SDS011;23193;42.656;21.170;2022-08-19T04:28:06;30.38;;;13.43;;
37305;SDS011;23193;42.656;21.170;2022-08-19T04:30:37;24.95;;;12.40;;
37305;SDS011;23193;42.656;21.170;2022-08-19T04:33:03;24.67;;;12.73;;
37305;SDS011;23193;42.656;21.170;2022-08-19T04:35:34;19.45;;;11.35;;
37305;SDS011;23193;42.656;21.170;2022-08-19T04:40:27;36.88;;;13.27;;
37305;SDS011;23193;42.656;21.170;2022-08-19T04:43:11;18.00;;;13.38;;
37305;SDS011;23193;42.656;21.170;2022-08-19T04:45:40;20.48;;;13.32;;
37305;SDS011;23193;42.656;21.170;2022-08-19T04:48:06;21.17;;;12.93;;
37305;SDS011;23193;42.656;21.170;2022-08-19T04:50:32;30.48;;;15.20;;
37305;SDS011;23193;42.656;21.170;2022-08-19T04:52:58;22.83;;;14.07;;
37305;SDS011;23193;42.656;21.170;2022-08-19T04:55:24;21.05;;;13.05;;
37305;SDS011;23193;42.656;21.170;2022-08-19T04:57:50;26.08;;;12.15;;
37305;SDS011;23193;42.656;21.170;2022-08-19T05:00:19;24.48;;;12.13;;
37305;SDS011;23193;42.656;21.170;2022-08-19T05:02:45;23.77;;;12.02;;
37305;SDS011;23193;42.656;21.170;2022-08-19T05:05:13;19.92;;;12.73;;
37305;SDS011;23193;42.656;21.170;2022-08-19T05:07:39;27.05;;;12.23;;
37305;SDS011;23193;42.656;21.170;2022-08-19T05:10:06;27.55;;;11.77;;
37305;SDS011;23193;42.656;21.170;2022-08-19T05:12:32;16.20;;;10.63;;
37305;SDS011;23193;42.656;21.170;2022-08-19T05:14:58;19.45;;;11.13;;
37305;SDS011;23193;42.656;21.170;2022-08-19T05:17:25;16.15;;;9.50;;
37305;SDS011;23193;42.656;21.170;2022-08-19T05:19:52;15.45;;;9.35;;
37305;SDS011;23193;42.656;21.170;2022-08-19T05:22:36;22.15;;;8.60;;
37305;SDS011;23193;42.656;21.170;2022-08-19T05:25:04;22.05;;;8.48;;
37305;SDS011;23193;42.656;21.170;2022-08-19T05:27:31;22.17;;;8.63;;
37305;SDS011;23193;42.656;21.170;2022-08-19T05:29:57;22.27;;;7.93;;
37305;SDS011;23193;42.656;21.170;2022-08-19T05:32:24;17.17;;;8.35;;
37305;SDS011;23193;42.656;21.170;2022-08-19T05:34:50;19.77;;;8.88;;
37305;SDS011;23193;42.656;21.170;2022-08-19T05:37:16;19.50;;;8.70;;
37305;SDS011;23193;42.656;21.170;2022-08-19T05:39:42;26.50;;;9.45;;
37305;SDS011;23193;42.656;21.170;2022-08-19T05:42:09;34.63;;;9.32;;
37305;SDS011;23193;42.656;21.170;2022-08-19T05:44:39;28.05;;;8.77;;
37305;SDS011;23193;42.656;21.170;2022-08-19T05:47:09;21.10;;;8.77;;
37305;SDS011;23193;42.656;21.170;2022-08-19T05:49:35;27.90;;;9.63;;
37305;SDS011;23193;42.656;21.170;2022-08-19T05:52:03;33.55;;;9.38;;
37305;SDS011;23193;42.656;21.170;2022-08-19T05:54:29;31.27;;;10.18;;
37305;SDS011;23193;42.656;21.170;2022-08-19T05:56:56;31.83;;;11.23;;
37305;SDS011;23193;42.656;21.170;2022-08-19T05:59:22;29.60;;;11.80;;
37305;SDS011;23193;42.656;21.170;2022-08-19T06:01:49;27.17;;;9.95;;
37305;SDS011;23193;42.656;21.170;2022-08-19T06:04:22;21.73;;;10.65;;
37305;SDS011;23193;42.656;21.170;2022-08-19T06:06:49;18.50;;;8.65;;
37305;SDS011;23193;42.656;21.170;2022-08-19T06:09:20;22.30;;;9.73;;
37305;SDS011;23193;42.656;21.170;2022-08-19T06:11:50;22.27;;;8.65;;
37305;SDS011;23193;42.656;21.170;2022-08-19T06:14:21;25.63;;;9.80;;
37305;SDS011;23193;42.656;21.170;2022-08-19T06:16:47;22.73;;;10.38;;
37305;SDS011;23193;42.656;21.170;2022-08-19T06:19:16;44.83;;;10.90;;
37305;SDS011;23193;42.656;21.170;2022-08-19T06:21:44;16.33;;;9.20;;
37305;SDS011;23193;42.656;21.170;2022-08-19T06:24:12;18.55;;;9.35;;
37305;SDS011;23193;42.656;21.170;2022-08-19T06:26:40;20.90;;;9.73;;
37305;SDS011;23193;42.656;21.170;2022-08-19T06:29:07;21.80;;;9.60;;
37305;SDS011;23193;42.656;21.170;2022-08-19T06:31:34;22.20;;;9.23;;
37305;SDS011;23193;42.656;21.170;2022-08-19T06:34:02;13.45;;;8.70;;
37305;SDS011;23193;42.656;21.170;2022-08-19T06:36:38;26.42;;;10.63;;
37305;SDS011;23193;42.656;21.170;2022-08-19T06:39:11;27.65;;;9.57;;
37305;SDS011;23193;42.656;21.170;2022-08-19T06:41:39;19.98;;;10.45;;
37305;SDS011;23193;42.656;21.170;2022-08-19T06:44:05;34.70;;;10.25;;
37305;SDS011;23193;42.656;21.170;2022-08-19T06:46:31;35.50;;;10.85;;
37305;SDS011;23193;42.656;21.170;2022-08-19T06:48:58;31.48;;;10.52;;
37305;SDS011;23193;42.656;21.170;2022-08-19T06:51:25;26.83;;;11.85;;
37305;SDS011;23193;42.656;21.170;2022-08-19T06:53:52;26.08;;;9.63;;
37305;SDS011;23193;42.656;21.170;2022-08-19T06:56:19;36.95;;;10.48;;
37305;SDS011;23193;42.656;21.170;2022-08-19T06:58:46;41.22;;;10.75;;
37305;SDS011;23193;42.656;21.170;2022-08-19T07:01:15;31.23;;;9.98;;
37305;SDS011;23193;42.656;21.170;2022-08-19T07:03:41;24.98;;;9.35;;
37305;SDS011;23193;42.656;21.170;2022-08-19T07:06:08;34.25;;;10.18;;
37305;SDS011;23193;42.656;21.170;2022-08-19T07:08:35;26.60;;;8.55;;
37305;SDS011;23193;42.656;21.170;2022-08-19T07:11:02;39.15;;;9.63;;
37305;SDS011;23193;42.656;21.170;2022-08-19T07:13:35;24.02;;;10.23;;
37305;SDS011;23193;42.656;21.170;2022-08-19T07:16:13;25.35;;;10.60;;
37305;SDS011;23193;42.656;21.170;2022-08-19T07:18:40;25.58;;;9.48;;
37305;SDS011;23193;42.656;21.170;2022-08-19T07:21:11;27.80;;;9.70;;
37305;SDS011;23193;42.656;21.170;2022-08-19T07:26:08;24.08;;;8.52;;
37305;SDS011;23193;42.656;21.170;2022-08-19T07:28:35;29.08;;;8.77;;
37305;SDS011;23193;42.656;21.170;2022-08-19T07:31:04;24.13;;;8.55;;
37305;SDS011;23193;42.656;21.170;2022-08-19T07:33:30;24.52;;;9.00;;
37305;SDS011;23193;42.656;21.170;2022-08-19T07:35:57;32.45;;;8.75;;
37305;SDS011;23193;42.656;21.170;2022-08-19T07:38:24;26.10;;;8.65;;
37305;SDS011;23193;42.656;21.170;2022-08-19T07:40:50;30.08;;;10.25;;
37305;SDS011;23193;42.656;21.170;2022-08-19T07:43:16;25.58;;;12.02;;
37305;SDS011;23193;42.656;21.170;2022-08-19T07:45:48;29.23;;;10.50;;
37305;SDS011;23193;42.656;21.170;2022-08-19T07:48:14;23.48;;;9.15;;
37305;SDS011;23193;42.656;21.170;2022-08-19T07:50:40;30.60;;;8.73;;
37305;SDS011;23193;42.656;21.170;2022-08-19T07:53:06;24.45;;;8.30;;
37305;SDS011;23193;42.656;21.170;2022-08-19T07:55:32;26.00;;;7.68;;
37305;SDS011;23193;42.656;21.170;2022-08-19T07:57:59;29.00;;;8.98;;
37305;SDS011;23193;42.656;21.170;2022-08-19T08:00:25;27.10;;;8.85;;
37305;SDS011;23193;42.656;21.170;2022-08-19T08:02:52;24.38;;;9.07;;
37305;SDS011;23193;42.656;21.170;2022-08-19T08:05:18;21.83;;;8.55;;
37305;SDS011;23193;42.656;21.170;2022-08-19T08:08:03;20.42;;;7.07;;
37305;SDS011;23193;42.656;21.170;2022-08-19T08:10:47;20.52;;;7.03;;
37305;SDS011;23193;42.656;21.170;2022-08-19T08:13:13;36.30;;;10.13;;
37305;SDS011;23193;42.656;21.170;2022-08-19T08:15:39;26.15;;;11.48;;
37305;SDS011;23193;42.656;21.170;2022-08-19T08:18:06;31.35;;;9.25;;
37305;SDS011;23193;42.656;21.170;2022-08-19T08:20:32;25.13;;;6.65;;
37305;SDS011;23193;42.656;21.170;2022-08-19T08:22:58;22.02;;;6.95;;
37305;SDS011;23193;42.656;21.170;2022-08-19T08:25:43;17.65;;;6.93;;
37305;SDS011;23193;42.656;21.170;2022-08-19T08:28:09;27.40;;;6.70;;
37305;SDS011;23193;42.656;21.170;2022-08-19T08:30:35;25.13;;;6.13;;
37305;SDS011;23193;42.656;21.170;2022-08-19T08:33:04;22.38;;;6.28;;
37305;SDS011;23193;42.656;21.170;2022-08-19T08:35:31;14.82;;;6.70;;
37305;SDS011;23193;42.656;21.170;2022-08-19T08:37:58;14.82;;;6.38;;
37305;SDS011;23193;42.656;21.170;2022-08-19T08:40:28;17.05;;;6.85;;
37305;SDS011;23193;42.656;21.170;2022-08-19T08:45:23;23.88;;;6.82;;
37305;SDS011;23193;42.656;21.170;2022-08-19T08:47:50;16.33;;;5.88;;
37305;SDS011;23193;42.656;21.170;2022-08-19T08:50:22;20.48;;;8.35;;
37305;SDS011;23193;42.656;21.170;2022-08-19T08:52:50;19.60;;;6.53;;
37305;SDS011;23193;42.656;21.170;2022-08-19T08:55:19;15.23;;;5.68;;
37305;SDS011;23193;42.656;21.170;2022-08-19T09:00:15;19.42;;;8.50;;
37305;SDS011;23193;42.656;21.170;2022-08-19T09:02:42;15.00;;;6.60;;
37305;SDS011;23193;42.656;21.170;2022-08-19T09:05:09;23.95;;;6.20;;
37305;SDS011;23193;42.656;21.170;2022-08-19T09:12:41;12.75;;;6.07;;
37305;SDS011;23193;42.656;21.170;2022-08-19T09:15:15;17.45;;;6.10;;
37305;SDS011;23193;42.656;21.170;2022-08-19T09:17:42;21.30;;;5.85;;
37305;SDS011;23193;42.656;21.170;2022-08-19T09:22:36;18.38;;;5.68;;
37305;SDS011;23193;42.656;21.170;2022-08-19T09:25:03;20.23;;;6.55;;
37305;SDS011;23193;42.656;21.170;2022-08-19T09:27:29;13.25;;;5.20;;
37305;SDS011;23193;42.656;21.170;2022-08-19T09:29:57;20.98;;;5.72;;
37305;SDS011;23193;42.656;21.170;2022-08-19T09:32:23;15.90;;;5.53;;
37305;SDS011;23193;42.656;21.170;2022-08-19T09:34:51;17.67;;;5.10;;
37305;SDS011;23193;42.656;21.170;2022-08-19T09:37:19;20.58;;;5.70;;
37305;SDS011;23193;42.656;21.170;2022-08-19T09:39:46;15.65;;;4.93;;
37305;SDS011;23193;42.656;21.170;2022-08-19T09:42:13;14.50;;;4.75;;
37305;SDS011;23193;42.656;21.170;2022-08-19T09:44:39;14.45;;;6.45;;
37305;SDS011;23193;42.656;21.170;2022-08-19T09:47:06;10.80;;;5.30;;
37305;SDS011;23193;42.656;21.170;2022-08-19T09:49:32;15.82;;;4.88;;
37305;SDS011;23193;42.656;21.170;2022-08-19T09:51:58;10.27;;;3.97;;
37305;SDS011;23193;42.656;21.170;2022-08-19T09:54:25;9.68;;;4.10;;
37305;SDS011;23193;42.656;21.170;2022-08-19T09:56:51;16.33;;;5.03;;
37305;SDS011;23193;42.656;21.170;2022-08-19T09:59:18;18.00;;;5.30;;
37305;SDS011;23193;42.656;21.170;2022-08-19T10:01:44;14.07;;;4.07;;
37305;SDS011;23193;42.656;21.170;2022-08-19T10:04:10;10.88;;;4.45;;
37305;SDS011;23193;42.656;21.170;2022-08-19T10:06:36;7.25;;;3.72;;
37305;SDS011;23193;42.656;21.170;2022-08-19T10:09:04;13.80;;;4.30;;
37305;SDS011;23193;42.656;21.170;2022-08-19T10:11:31;10.70;;;3.40;;
37305;SDS011;23193;42.656;21.170;2022-08-19T10:13:58;12.00;;;4.60;;
37305;SDS011;23193;42.656;21.170;2022-08-19T10:16:24;10.13;;;3.92;;
37305;SDS011;23193;42.656;21.170;2022-08-19T10:18:51;9.00;;;4.32;;
37305;SDS011;23193;42.656;21.170;2022-08-19T10:21:20;9.88;;;4.00;;
37305;SDS011;23193;42.656;21.170;2022-08-19T10:23:48;10.18;;;4.05;;
37305;SDS011;23193;42.656;21.170;2022-08-19T10:26:25;17.48;;;4.00;;
37305;SDS011;23193;42.656;21.170;2022-08-19T10:28:52;13.88;;;3.85;;
37305;SDS011;23193;42.656;21.170;2022-08-19T10:31:19;16.20;;;4.28;;
37305;SDS011;23193;42.656;21.170;2022-08-19T10:33:49;9.88;;;4.15;;
37305;SDS011;23193;42.656;21.170;2022-08-19T10:36:19;12.18;;;3.58;;
37305;SDS011;23193;42.656;21.170;2022-08-19T10:38:46;11.68;;;3.88;;
37305;SDS011;23193;42.656;21.170;2022-08-19T10:41:15;12.13;;;4.00;;
37305;SDS011;23193;42.656;21.170;2022-08-19T10:43:41;10.95;;;4.55;;
37305;SDS011;23193;42.656;21.170;2022-08-19T10:46:08;12.13;;;5.63;;
37305;SDS011;23193;42.656;21.170;2022-08-19T10:48:35;14.80;;;4.40;;
37305;SDS011;23193;42.656;21.170;2022-08-19T10:51:01;11.70;;;4.60;;
37305;SDS011;23193;42.656;21.170;2022-08-19T10:53:46;9.95;;;4.00;;
37305;SDS011;23193;42.656;21.170;2022-08-19T10:56:12;10.18;;;4.15;;
37305;SDS011;23193;42.656;21.170;2022-08-19T10:58:57;13.95;;;4.55;;
37305;SDS011;23193;42.656;21.170;2022-08-19T11:01:24;16.58;;;4.85;;
37305;SDS011;23193;42.656;21.170;2022-08-19T11:03:50;12.90;;;4.70;;
37305;SDS011;23193;42.656;21.170;2022-08-19T11:06:16;13.25;;;5.03;;
37305;SDS011;23193;42.656;21.170;2022-08-19T11:08:42;12.52;;;5.60;;
37305;SDS011;23193;42.656;21.170;2022-08-19T11:11:09;10.88;;;4.45;;
37305;SDS011;23193;42.656;21.170;2022-08-19T11:13:38;19.20;;;4.63;;
37305;SDS011;23193;42.656;21.170;2022-08-19T11:16:06;17.83;;;5.22;;
37305;SDS011;23193;42.656;21.170;2022-08-19T11:18:36;14.80;;;4.63;;
37305;SDS011;23193;42.656;21.170;2022-08-19T11:21:07;19.63;;;5.07;;
37305;SDS011;23193;42.656;21.170;2022-08-19T11:23:33;22.23;;;4.93;;
37305;SDS011;23193;42.656;21.170;2022-08-19T11:25:59;14.65;;;4.63;;
37305;SDS011;23193;42.656;21.170;2022-08-19T11:28:26;17.20;;;4.63;;
37305;SDS011;23193;42.656;21.170;2022-08-19T11:30:53;20.40;;;5.35;;
37305;SDS011;23193;42.656;21.170;2022-08-19T11:33:19;21.70;;;5.88;;
37305;SDS011;23193;42.656;21.170;2022-08-19T11:35:45;24.25;;;5.15;;
37305;SDS011;23193;42.656;21.170;2022-08-19T11:38:11;24.58;;;6.13;;
37305;SDS011;23193;42.656;21.170;2022-08-19T11:40:38;17.40;;;6.05;;
37305;SDS011;23193;42.656;21.170;2022-08-19T11:43:05;14.35;;;5.30;;
37305;SDS011;23193;42.656;21.170;2022-08-19T11:45:31;18.92;;;5.32;;
37305;SDS011;23193;42.656;21.170;2022-08-19T11:47:57;16.10;;;6.45;;
37305;SDS011;23193;42.656;21.170;2022-08-19T11:50:23;21.90;;;7.65;;
37305;SDS011;23193;42.656;21.170;2022-08-19T11:52:49;22.13;;;5.57;;
37305;SDS011;23193;42.656;21.170;2022-08-19T11:55:16;18.77;;;5.60;;
37305;SDS011;23193;42.656;21.170;2022-08-19T11:57:42;20.13;;;6.22;;
37305;SDS011;23193;42.656;21.170;2022-08-19T12:00:08;21.77;;;5.07;;
37305;SDS011;23193;42.656;21.170;2022-08-19T12:02:37;22.17;;;5.07;;
37305;SDS011;23193;42.656;21.170;2022-08-19T12:05:03;16.08;;;4.75;;
37305;SDS011;23193;42.656;21.170;2022-08-19T12:07:33;24.02;;;6.78;;
37305;SDS011;23193;42.656;21.170;2022-08-19T12:09:59;38.78;;;8.27;;
37305;SDS011;23193;42.656;21.170;2022-08-19T12:12:26;19.55;;;6.15;;
37305;SDS011;23193;42.656;21.170;2022-08-19T12:14:52;23.58;;;5.43;;
37305;SDS011;23193;42.656;21.170;2022-08-19T12:17:22;29.60;;;5.70;;
37305;SDS011;23193;42.656;21.170;2022-08-19T12:19:48;15.13;;;5.50;;
37305;SDS011;23193;42.656;21.170;2022-08-19T12:22:14;25.48;;;6.53;;
37305;SDS011;23193;42.656;21.170;2022-08-19T12:24:40;21.00;;;5.30;;
37305;SDS011;23193;42.656;21.170;2022-08-19T12:27:06;28.38;;;5.65;;
37305;SDS011;23193;42.656;21.170;2022-08-19T12:29:32;26.85;;;6.40;;
37305;SDS011;23193;42.656;21.170;2022-08-19T12:31:59;17.85;;;4.93;;
37305;SDS011;23193;42.656;21.170;2022-08-19T12:34:28;25.55;;;4.93;;
37305;SDS011;23193;42.656;21.170;2022-08-19T12:36:58;21.30;;;5.35;;
37305;SDS011;23193;42.656;21.170;2022-08-19T12:39:25;20.25;;;5.95;;
37305;SDS011;23193;42.656;21.170;2022-08-19T12:41:51;21.45;;;6.30;;
37305;SDS011;23193;42.656;21.170;2022-08-19T12:44:17;24.55;;;5.82;;
37305;SDS011;23193;42.656;21.170;2022-08-19T12:46:43;18.55;;;5.05;;
37305;SDS011;23193;42.656;21.170;2022-08-19T12:49:09;25.42;;;14.32;;
37305;SDS011;23193;42.656;21.170;2022-08-19T12:51:35;21.70;;;5.82;;
37305;SDS011;23193;42.656;21.170;2022-08-19T12:54:01;24.35;;;5.63;;
37305;SDS011;23193;42.656;21.170;2022-08-19T12:56:29;22.90;;;5.88;;
37305;SDS011;23193;42.656;21.170;2022-08-19T12:58:56;32.92;;;6.57;;
37305;SDS011;23193;42.656;21.170;2022-08-19T13:01:22;22.65;;;5.75;;
37305;SDS011;23193;42.656;21.170;2022-08-19T13:03:48;20.33;;;6.18;;
37305;SDS011;23193;42.656;21.170;2022-08-19T13:06:14;20.88;;;6.05;;
37305;SDS011;23193;42.656;21.170;2022-08-19T13:08:40;37.90;;;7.45;;
37305;SDS011;23193;42.656;21.170;2022-08-19T13:11:11;26.05;;;6.50;;
37305;SDS011;23193;42.656;21.170;2022-08-19T13:13:37;34.85;;;6.97;;
37305;SDS011;23193;42.656;21.170;2022-08-19T13:16:05;31.10;;;6.38;;
37305;SDS011;23193;42.656;21.170;2022-08-19T13:18:31;26.13;;;5.78;;
37305;SDS011;23193;42.656;21.170;2022-08-19T13:21:01;25.50;;;6.18;;
37305;SDS011;23193;42.656;21.170;2022-08-19T13:23:28;26.90;;;5.90;;
37305;SDS011;23193;42.656;21.170;2022-08-19T13:25:56;22.38;;;6.22;;
37305;SDS011;23193;42.656;21.170;2022-08-19T13:28:22;34.97;;;6.40;;
37305;SDS011;23193;42.656;21.170;2022-08-19T13:30:48;28.85;;;5.38;;
37305;SDS011;23193;42.656;21.170;2022-08-19T13:33:33;17.10;;;5.70;;
37305;SDS011;23193;42.656;21.170;2022-08-19T13:36:00;27.70;;;6.40;;
37305;SDS011;23193;42.656;21.170;2022-08-19T13:38:26;30.08;;;7.47;;
37305;SDS011;23193;42.656;21.170;2022-08-19T13:40:53;23.98;;;5.20;;
37305;SDS011;23193;42.656;21.170;2022-08-19T13:43:21;43.97;;;17.67;;
37305;SDS011;23193;42.656;21.170;2022-08-19T13:45:48;33.70;;;10.70;;
37305;SDS011;23193;42.656;21.170;2022-08-19T13:48:14;33.63;;;6.55;;
37305;SDS011;23193;42.656;21.170;2022-08-19T13:50:41;31.85;;;7.32;;
37305;SDS011;23193;42.656;21.170;2022-08-19T13:53:08;28.63;;;7.65;;
37305;SDS011;23193;42.656;21.170;2022-08-19T13:55:34;26.42;;;6.95;;
37305;SDS011;23193;42.656;21.170;2022-08-19T13:58:01;29.55;;;6.40;;
37305;SDS011;23193;42.656;21.170;2022-08-19T14:00:28;31.33;;;6.60;;
37305;SDS011;23193;42.656;21.170;2022-08-19T14:02:55;27.65;;;6.65;;
37305;SDS011;23193;42.656;21.170;2022-08-19T14:05:21;29.40;;;6.22;;
37305;SDS011;23193;42.656;21.170;2022-08-19T14:07:48;24.67;;;5.22;;
37305;SDS011;23193;42.656;21.170;2022-08-19T16:09:02;25.98;;;5.78;;
37305;SDS011;23193;42.656;21.170;2022-08-19T16:11:30;37.40;;;6.45;;
37305;SDS011;23193;42.656;21.170;2022-08-19T16:13:57;29.58;;;5.40;;
37305;SDS011;23193;42.656;21.170;2022-08-19T16:16:25;29.42;;;6.28;;
37305;SDS011;23193;42.656;21.170;2022-08-19T16:18:55;27.48;;;5.45;;
37305;SDS011;23193;42.656;21.170;2022-08-19T16:21:22;34.28;;;5.88;;
37305;SDS011;23193;42.656;21.170;2022-08-19T16:23:50;31.52;;;5.57;;
37305;SDS011;23193;42.656;21.170;2022-08-19T16:26:16;23.08;;;4.22;;
37305;SDS011;23193;42.656;21.170;2022-08-19T16:28:43;24.63;;;5.35;;
37305;SDS011;23193;42.656;21.170;2022-08-19T16:31:10;27.67;;;5.28;;
37305;SDS011;23193;42.656;21.170;2022-08-19T16:33:37;25.85;;;5.55;;
37305;SDS011;23193;42.656;21.170;2022-08-19T16:36:03;30.05;;;5.72;;
37305;SDS011;23193;42.656;21.170;2022-08-19T16:38:30;28.67;;;4.75;;